Details From LEGE - Girona
To LEDA - Lleida
Flight Number -
Tags generated
Created
Modified
Stats Distance 100 nm / 186 km
Max Altitude 10,100 ft / 3,078 m
Waypoints 3
Social Downloads 2
Likes 0
Share VATSIM

Download

Looking for another format? Having issues loading an existing format? Contact us
Advertisement - Login to hide

Notes

Basic altitude profile: - Ascent Rate: 2500ft/min - Ascent Speed: 250kts - Cruise Altitude: 10000ft - Cruise Speed: 420kts - Descent Rate: 1500ft/min - Descent Speed: 250kts Options: - Use NATs: no - Use PACOTS: yes - Use low airways: yes - Use high airways: no

Route

LEGE MAMUK LEDA

ID Type Via Altitude (ft/m) Position (lat/lon) Dist (leg/tot) Name
O LEGE APT - 0 / 0 41.90520 / 2.76213 - / 0 nm Girona
MAMUK FIX - 10,100 / 3,078 41.83676 / 2.07209 31 / 31 nm
O LEDA APT - 0 / 0 41.72821 / 0.53501 69 / 100 nm Lleida

Altitude Profile

Advertisement - Login to hide

LEGE

Details ICAO LEGE (GRO)
Name Girona Airport
Region Spain
Timezone Europe/Madrid (UTC+2.0)
Stats Elevation 469 ft / 143 m (AMSL)
Location 41.905300° 2.762190°
Runways 1
Magnetic Variation 1.074° E

METAR

LEGE 200900Z 04005KT 010V070 9999 FEW040 SCT050 19/16 Q1023

Decode

TAF

TAF LEGE 200500Z 2006/2106 34006KT 9999 SCT040 TX24/2013Z TN14/2106Z TEMPO 2009/2018 03008KT

Decode

Departure Runways

ID Width Length Bearing (true/mag) Surface Threshold Overrun Markings Lighting
02 148 ft / 45 m 7,889 ft / 2,404 m 15.72° / 14.65° ASPHALT 0 ft / 0 m 194 ft / 59 m PREC-APP CENTERLINE EDGE THRESHOLD SSALF TDZ REIL-UNI
20 148 ft / 45 m 7,889 ft / 2,404 m 195.73° / 194.65° ASPHALT 518 ft / 158 m 197 ft / 60 m PREC-APP CENTERLINE EDGE THRESHOLD CALVERT-ILS TDZ REIL-OMNI

LEDA

Details ICAO LEDA (ILD)
Name Lleida-Alguaire Airport
Region Spain
Timezone Europe/Madrid (UTC+2.0)
Stats Elevation 1,150 ft / 351 m (AMSL)
Location 41.728100° 0.535278°
Runways 1
Magnetic Variation 0.513° E

METAR

Not found

TAF

TAF LEDA 200800Z 2009/2109 09010KT 9999 BKN040 TX23/2013Z TN13/2106Z PROB40 TEMPO 2014/2016 4000 SHRA BKN020 SCT030CB BECMG 2016/2018 02005KT

Decode

Destination Runways

ID Width Length Bearing (true/mag) Surface Threshold Overrun Markings Lighting
13 200 ft / 61 m 8,190 ft / 2,496 m 133.46° / 132.95° ASPHALT 0 ft / 0 m 207 ft / 63 m APP CENTERLINE EDGE THRESHOLD
31 200 ft / 61 m 8,190 ft / 2,496 m 313.48° / 312.96° ASPHALT 289 ft / 88 m 207 ft / 63 m UK-PREC-APP CENTERLINE EDGE THRESHOLD

Popular Alternatives